Time;durP1;ratioP1;P1;durP2;ratioP2;P2;SDS_P1;SDS_P2;PMS_P1;PMS_P2;Temp;Humidity;BMP_temperature;BMP_pressure;BME280_temperature;BME280_humidity;BME280_pressure;Samples;Min_cycle;Max_cycle;Signal;HPM_P1;HPM_P2
2022/06/19 00:00:17;;;;;;;5.68;2.00;;;15.30;99.90;;;;;;4915664;29;20210;-88
2022/06/19 00:02:46;;;;;;;6.95;1.70;;;15.40;99.90;;;;;;4914847;29;20289;-88
2022/06/19 00:05:15;;;;;;;4.23;1.60;;;15.40;99.90;;;;;;4915966;29;20235;-88
2022/06/19 00:07:42;;;;;;;5.72;1.55;;;15.40;99.90;;;;;;4914158;29;20199;-87
2022/06/19 00:10:10;;;;;;;7.47;1.50;;;15.40;99.90;;;;;;4921313;29;20214;-90
2022/06/19 00:12:38;;;;;;;7.00;1.60;;;15.40;99.90;;;;;;4935304;29;20206;-86
2022/06/19 00:15:07;;;;;;;7.23;1.87;;;15.40;99.90;;;;;;4934442;29;20798;-83
2022/06/19 00:17:34;;;;;;;2.92;1.02;;;15.50;99.90;;;;;;4919306;29;20297;-86
2022/06/19 00:20:01;;;;;;;6.10;1.33;;;15.60;99.90;;;;;;4914971;29;20241;-87
2022/06/19 00:22:28;;;;;;;4.82;1.70;;;15.60;99.90;;;;;;4915214;29;20313;-90
2022/06/19 00:24:56;;;;;;;6.43;1.17;;;15.60;99.90;;;;;;4913507;29;20226;-87
2022/06/19 00:27:24;;;;;;;7.60;1.47;;;15.70;99.90;;;;;;4916777;29;20277;-87
2022/06/19 00:29:51;;;;;;;7.78;1.83;;;15.70;99.90;;;;;;4934389;29;20297;-88
2022/06/19 00:32:20;;;;;;;5.63;1.40;;;15.70;99.90;;;;;;4934771;29;20476;-85
2022/06/19 00:34:48;;;;;;;7.00;1.98;;;15.70;99.90;;;;;;4935163;29;20202;-83
2022/06/19 00:37:14;;;;;;;8.10;2.00;;;15.70;99.90;;;;;;4932729;29;20206;-85
2022/06/19 00:39:42;;;;;;;11.20;2.17;;;15.70;99.90;;;;;;4933687;29;20198;-85
2022/06/19 00:42:11;;;;;;;11.15;2.63;;;15.70;99.90;;;;;;4930717;29;20212;-85
2022/06/19 00:44:38;;;;;;;7.47;1.83;;;15.80;99.90;;;;;;4934003;29;20631;-88
2022/06/19 00:47:14;;;;;;;11.23;2.17;;;15.80;99.90;;;;;;4933023;29;20214;-89
2022/06/19 00:49:48;;;;;;;10.65;2.00;;;15.80;99.90;;;;;;4934240;29;20201;-85
2022/06/19 00:52:17;;;;;;;11.73;2.42;;;15.80;99.90;;;;;;4934243;29;20876;-78
2022/06/19 00:54:47;;;;;;;11.15;2.08;;;15.80;99.90;;;;;;4926392;29;20684;-88
2022/06/19 00:57:16;;;;;;;7.00;1.80;;;15.90;99.90;;;;;;4914606;29;20203;-88
2022/06/19 00:59:46;;;;;;;8.07;2.00;;;15.90;99.90;;;;;;4925572;29;20214;-86
2022/06/19 01:02:15;;;;;;;9.98;2.30;;;15.90;99.90;;;;;;4934750;29;20285;-87
2022/06/19 01:04:49;;;;;;;10.73;2.20;;;15.90;99.90;;;;;;4932748;29;20230;-83
2022/06/19 01:07:16;;;;;;;11.35;2.63;;;15.90;99.90;;;;;;4932510;29;20216;-88
2022/06/19 01:09:44;;;;;;;10.60;2.72;;;15.90;99.90;;;;;;4933083;29;20204;-90
2022/06/19 01:12:12;;;;;;;11.70;2.08;;;16.00;99.90;;;;;;4932747;29;20210;-83
2022/06/19 01:14:42;;;;;;;11.38;2.22;;;15.90;99.90;;;;;;4932167;29;20220;-86
2022/06/19 01:17:09;;;;;;;11.77;2.42;;;15.90;99.90;;;;;;4932456;29;20202;-89
2022/06/19 01:19:41;;;;;;;7.25;2.22;;;15.90;99.90;;;;;;4925595;29;20206;-82
2022/06/19 01:22:16;;;;;;;9.25;2.50;;;15.90;99.90;;;;;;4913088;29;20258;-83
2022/06/19 01:25:05;;;;;;;8.43;2.55;;;15.90;99.90;;;;;;4914978;29;20237;-81
2022/06/19 01:30:22;;;;;;;8.13;2.22;;;15.80;99.90;;;;;;4930363;29;20271;-88
2022/06/19 01:32:51;;;;;;;12.13;2.53;;;15.80;99.90;;;;;;4912429;29;20203;-83
2022/06/19 01:35:21;;;;;;;8.93;2.35;;;15.90;99.90;;;;;;4911304;29;20575;-87
2022/06/19 01:37:51;;;;;;;7.05;1.90;;;15.80;99.90;;;;;;4924011;29;20265;-86
2022/06/19 01:40:22;;;;;;;6.25;1.90;;;15.80;99.90;;;;;;4931753;29;20210;-80
2022/06/19 01:42:49;;;;;;;8.50;1.67;;;15.80;99.90;;;;;;4926749;29;20216;-80
2022/06/19 01:45:17;;;;;;;5.82;1.70;;;15.80;99.90;;;;;;4915316;29;20234;-91
2022/06/19 01:47:45;;;;;;;5.13;1.88;;;15.80;99.90;;;;;;4920165;29;20205;-80
2022/06/19 01:50:15;;;;;;;12.50;2.60;;;15.70;99.90;;;;;;4932530;29;20684;-89
2022/06/19 01:52:42;;;;;;;10.10;2.08;;;15.70;99.90;;;;;;4929996;29;20217;-83
2022/06/19 01:55:12;;;;;;;7.40;1.98;;;15.70;99.90;;;;;;4915079;29;20206;-83
2022/06/19 01:57:43;;;;;;;6.85;2.30;;;15.70;99.90;;;;;;4913673;29;20762;-89
2022/06/19 02:00:14;;;;;;;12.18;2.53;;;15.60;99.90;;;;;;4930306;29;20217;-85
2022/06/19 02:02:44;;;;;;;9.83;2.50;;;15.70;99.90;;;;;;4927630;29;20210;-85
2022/06/19 02:05:11;;;;;;;8.45;2.15;;;15.70;99.90;;;;;;4912571;29;20350;-86
2022/06/19 02:07:38;;;;;;;7.18;2.17;;;15.60;99.90;;;;;;4911559;29;20223;-85
2022/06/19 02:10:07;;;;;;;9.85;2.35;;;15.60;99.90;;;;;;4912676;29;20552;-83
2022/06/19 02:12:34;;;;;;;10.27;2.40;;;15.60;99.90;;;;;;4912849;29;20209;-84
2022/06/19 02:15:06;;;;;;;6.47;2.05;;;15.50;99.90;;;;;;4912027;29;20211;-82
2022/06/19 02:17:37;;;;;;;9.82;2.42;;;15.50;99.90;;;;;;4912456;29;20219;-84
2022/06/19 02:20:06;;;;;;;8.52;1.92;;;15.50;99.90;;;;;;4912658;29;20198;-82
2022/06/19 02:22:34;;;;;;;7.80;1.92;;;15.50;99.90;;;;;;4908978;29;20298;-83
2022/06/19 02:25:02;;;;;;;9.43;2.25;;;15.50;99.90;;;;;;4914193;29;20262;-88
2022/06/19 02:27:30;;;;;;;10.85;2.30;;;15.50;99.90;;;;;;4917171;29;20226;-86
2022/06/19 02:29:57;;;;;;;8.67;2.20;;;15.40;99.90;;;;;;4919097;29;20281;-80
2022/06/19 02:32:32;;;;;;;23.38;4.05;;;15.40;99.90;;;;;;4934727;29;20213;-87
2022/06/19 02:34:59;;;;;;;19.25;4.60;;;15.30;99.90;;;;;;4927827;29;20218;-88
2022/06/19 02:37:31;;;;;;;13.00;3.78;;;15.20;99.90;;;;;;4918067;29;20499;-93
2022/06/19 02:40:06;;;;;;;14.70;2.65;;;15.10;99.90;;;;;;4917939;29;20215;-90
2022/06/19 02:42:41;;;;;;;11.77;2.08;;;14.90;99.90;;;;;;4918074;29;20197;-90
2022/06/19 02:45:12;;;;;;;12.20;2.83;;;14.70;99.90;;;;;;4916068;29;20237;-89
2022/06/19 02:47:42;;;;;;;10.10;2.60;;;14.50;99.90;;;;;;4916848;29;20214;-86
2022/06/19 02:50:12;;;;;;;10.75;2.50;;;14.20;99.90;;;;;;4915405;29;20207;-91
2022/06/19 02:52:39;;;;;;;10.53;2.57;;;14.10;99.90;;;;;;4929776;29;20277;-87
2022/06/19 02:55:09;;;;;;;11.57;2.40;;;14.00;99.90;;;;;;4937308;29;20296;-86
2022/06/19 02:57:35;;;;;;;8.97;2.17;;;13.80;99.90;;;;;;4937155;29;20221;-88
2022/06/19 03:00:03;;;;;;;13.77;2.90;;;13.60;99.90;;;;;;4933579;29;20493;-89
2022/06/19 03:02:31;;;;;;;9.60;2.73;;;13.50;99.90;;;;;;4917624;29;20854;-85
2022/06/19 03:05:02;;;;;;;5.80;1.90;;;13.40;99.90;;;;;;4917502;29;20579;-92
2022/06/19 03:07:29;;;;;;;8.97;3.17;;;13.40;99.90;;;;;;4918092;29;20295;-90
2022/06/19 03:09:57;;;;;;;12.50;2.20;;;13.40;99.90;;;;;;4916797;29;20721;-87
2022/06/19 03:12:24;;;;;;;8.20;2.43;;;13.40;99.90;;;;;;4926993;29;20210;-88
2022/06/19 03:14:51;;;;;;;9.90;2.13;;;13.40;99.90;;;;;;4936723;29;20206;-91
2022/06/19 03:17:20;;;;;;;10.07;1.80;;;13.40;99.90;;;;;;4936237;29;20225;-89
2022/06/19 03:19:48;;;;;;;10.40;2.50;;;13.50;99.90;;;;;;4928784;29;20514;-84
2022/06/19 03:22:16;;;;;;;8.87;2.53;;;13.50;99.90;;;;;;4916588;29;20294;-89
2022/06/19 03:24:43;;;;;;;9.70;1.63;;;13.50;99.90;;;;;;4919326;29;20217;-85
2022/06/19 03:27:12;;;;;;;13.03;2.33;;;13.50;99.90;;;;;;4933985;29;20222;-87
2022/06/19 03:29:39;;;;;;;12.40;3.10;;;13.50;99.90;;;;;;4926424;29;20261;-85
2022/06/19 03:32:07;;;;;;;8.73;2.07;;;13.60;99.90;;;;;;4914626;29;20614;-86
2022/06/19 03:34:34;;;;;;;9.47;2.37;;;13.50;99.90;;;;;;4915179;29;20205;-86
2022/06/19 03:37:01;;;;;;;7.07;2.10;;;13.50;99.90;;;;;;4914115;29;20204;-87
2022/06/19 03:39:29;;;;;;;13.40;2.70;;;13.50;99.90;;;;;;4928101;29;20509;-86
2022/06/19 03:41:56;;;;;;;8.70;2.63;;;13.40;99.90;;;;;;4933951;29;20202;-85
2022/06/19 03:44:24;;;;;;;8.57;2.57;;;13.50;99.90;;;;;;4917524;29;20274;-85
2022/06/19 03:46:51;;;;;;;6.93;1.80;;;13.50;99.90;;;;;;4913716;29;20226;-84
2022/06/19 03:49:18;;;;;;;9.47;2.37;;;13.50;99.90;;;;;;4919093;29;20302;-85
2022/06/19 03:51:45;;;;;;;10.00;2.33;;;13.50;99.90;;;;;;4922539;29;20229;-86
2022/06/19 03:54:12;;;;;;;10.33;2.17;;;13.50;99.90;;;;;;4916742;29;20210;-89
2022/06/19 03:56:40;;;;;;;9.00;2.33;;;13.50;99.90;;;;;;4917123;29;20345;-88
2022/06/19 03:59:08;;;;;;;10.93;2.57;;;13.50;99.90;;;;;;4915660;29;20294;-86
2022/06/19 04:01:37;;;;;;;9.93;2.33;;;13.40;99.90;;;;;;4914126;29;20543;-85
2022/06/19 04:04:05;;;;;;;9.67;2.73;;;13.40;99.90;;;;;;4933209;29;20526;-84
2022/06/19 04:06:34;;;;;;;13.17;2.50;;;13.40;99.90;;;;;;4932707;29;20949;-85
2022/06/19 04:09:02;;;;;;;10.97;2.33;;;13.40;99.90;;;;;;4934020;29;20233;-89
2022/06/19 04:11:30;;;;;;;13.57;3.47;;;13.40;99.90;;;;;;4920619;29;20278;-88
2022/06/19 04:13:58;;;;;;;7.40;2.00;;;13.40;99.90;;;;;;4915126;29;20215;-86
2022/06/19 04:16:27;;;;;;;15.80;2.90;;;13.40;99.90;;;;;;4916157;29;20270;-87
2022/06/19 04:18:56;;;;;;;9.80;2.20;;;13.30;99.90;;;;;;4932156;29;20214;-86
2022/06/19 04:21:26;;;;;;;14.73;2.33;;;13.40;99.90;;;;;;4932791;29;20305;-86
2022/06/19 04:23:55;;;;;;;14.83;3.23;;;13.40;99.90;;;;;;4932690;29;20246;-87
2022/06/19 04:26:23;;;;;;;9.33;2.53;;;13.40;99.90;;;;;;4932462;29;20241;-82
2022/06/19 04:28:50;;;;;;;11.43;2.67;;;13.40;99.90;;;;;;4914533;29;20246;-86
2022/06/19 04:31:19;;;;;;;11.03;2.37;;;13.50;99.90;;;;;;4915600;29;20293;-86
2022/06/19 04:33:46;;;;;;;12.37;2.80;;;13.50;99.90;;;;;;4916240;29;20211;-88
2022/06/19 04:36:18;;;;;;;10.20;2.10;;;13.50;99.90;;;;;;4915868;29;20302;-88
2022/06/19 04:38:49;;;;;;;14.63;2.77;;;13.50;99.90;;;;;;4915792;29;20588;-90
2022/06/19 04:41:18;;;;;;;12.20;2.80;;;13.60;99.90;;;;;;4915949;29;20203;-86
2022/06/19 04:43:44;;;;;;;12.73;2.77;;;13.60;99.90;;;;;;4914766;29;20810;-83
2022/06/19 04:46:11;;;;;;;13.23;2.67;;;13.60;99.90;;;;;;4914833;29;20234;-85
2022/06/19 04:48:40;;;;;;;8.67;2.40;;;13.60;99.90;;;;;;4915625;29;20854;-87
2022/06/19 04:51:07;;;;;;;8.77;2.20;;;13.60;99.90;;;;;;4915120;29;20218;-87
2022/06/19 04:53:37;;;;;;;10.27;2.80;;;13.60;99.90;;;;;;4914554;29;20250;-84
2022/06/19 04:56:05;;;;;;;16.03;3.23;;;13.60;99.90;;;;;;4914780;29;20671;-82
2022/06/19 04:58:31;;;;;;;10.10;2.40;;;13.60;99.90;;;;;;4921226;29;20217;-87
2022/06/19 05:01:01;;;;;;;12.73;3.07;;;13.60;99.90;;;;;;4933379;29;20294;-84
2022/06/19 05:03:28;;;;;;;10.17;2.47;;;13.70;99.90;;;;;;4918491;29;20219;-87
2022/06/19 05:05:57;;;;;;;10.63;2.53;;;13.70;99.90;;;;;;4918118;29;20210;-82
2022/06/19 05:08:24;;;;;;;14.57;2.77;;;13.70;99.90;;;;;;4933158;29;20217;-86
2022/06/19 05:10:51;;;;;;;10.73;2.30;;;13.70;99.90;;;;;;4917987;29;20221;-87
2022/06/19 05:13:19;;;;;;;11.53;3.13;;;13.70;99.90;;;;;;4914311;29;20873;-84
2022/06/19 05:15:45;;;;;;;12.00;2.93;;;13.70;99.90;;;;;;4912475;29;20211;-85
2022/06/19 05:18:13;;;;;;;12.20;2.37;;;13.70;99.90;;;;;;4915009;29;20310;-84
2022/06/19 05:20:40;;;;;;;11.70;2.50;;;13.70;99.90;;;;;;4914593;29;20205;-85
2022/06/19 05:23:10;;;;;;;13.60;2.47;;;13.70;99.90;;;;;;4915080;29;20218;-84
2022/06/19 05:25:37;;;;;;;10.67;3.00;;;13.80;99.90;;;;;;4914249;29;20216;-86
2022/06/19 05:28:05;;;;;;;7.47;2.33;;;13.70;99.90;;;;;;4913466;29;20238;-85
2022/06/19 05:30:32;;;;;;;6.23;2.00;;;13.80;99.90;;;;;;4914735;29;20306;-79
2022/06/19 05:32:58;;;;;;;9.57;2.20;;;13.80;99.90;;;;;;4913023;29;20791;-82
2022/06/19 05:35:25;;;;;;;7.97;2.28;;;13.80;99.90;;;;;;4912029;29;20199;-87
2022/06/19 05:37:52;;;;;;;10.03;2.50;;;13.80;99.90;;;;;;4914761;29;20206;-86
2022/06/19 05:40:20;;;;;;;10.53;2.77;;;13.80;99.90;;;;;;4913162;29;20195;-81
2022/06/19 05:42:47;;;;;;;12.83;2.83;;;13.80;99.90;;;;;;4912791;29;20213;-83
2022/06/19 05:45:14;;;;;;;16.17;3.23;;;13.90;99.90;;;;;;4926785;29;20268;-83
2022/06/19 05:47:41;;;;;;;13.63;3.00;;;13.90;99.90;;;;;;4931524;29;20551;-84
2022/06/19 05:50:10;;;;;;;11.07;2.70;;;13.80;99.90;;;;;;4930915;29;20205;-84
2022/06/19 05:52:37;;;;;;;8.27;2.20;;;13.80;99.90;;;;;;4920521;29;20206;-81
2022/06/19 05:55:05;;;;;;;10.37;2.47;;;13.80;99.90;;;;;;4911418;29;20222;-80
2022/06/19 05:57:34;;;;;;;14.47;2.87;;;13.80;99.90;;;;;;4912515;29;20290;-82
2022/06/19 06:00:01;;;;;;;13.10;2.53;;;13.80;99.90;;;;;;4913481;29;20318;-79
2022/06/19 06:02:28;;;;;;;13.17;2.80;;;13.80;99.90;;;;;;4915068;29;20301;-83
2022/06/19 06:04:55;;;;;;;8.53;3.03;;;13.70;99.90;;;;;;4915402;29;20220;-83
2022/06/19 06:07:21;;;;;;;12.83;3.37;;;13.80;99.90;;;;;;4915189;29;20503;-81
2022/06/19 06:09:49;;;;;;;11.40;2.50;;;13.80;99.90;;;;;;4915621;29;20209;-80
2022/06/19 06:12:16;;;;;;;14.00;3.20;;;13.80;99.90;;;;;;4916501;29;20211;-81
2022/06/19 06:14:44;;;;;;;12.70;2.50;;;13.80;99.90;;;;;;4915247;29;20219;-85
2022/06/19 06:17:11;;;;;;;9.27;2.23;;;13.90;99.90;;;;;;4915456;29;20510;-86
2022/06/19 06:19:37;;;;;;;11.10;2.50;;;13.90;99.90;;;;;;4915990;29;20202;-84
2022/06/19 06:22:05;;;;;;;13.32;2.92;;;13.90;99.90;;;;;;4926059;29;20674;-77
2022/06/19 06:24:33;;;;;;;9.60;2.70;;;13.90;99.90;;;;;;4931830;29;20220;-85
2022/06/19 06:27:03;;;;;;;13.30;3.03;;;13.90;99.90;;;;;;4915414;29;20231;-88
2022/06/19 06:29:30;;;;;;;12.07;2.93;;;13.90;99.90;;;;;;4916351;29;20241;-87
2022/06/19 06:31:58;;;;;;;15.82;3.15;;;14.00;99.90;;;;;;4918121;29;20213;-79
2022/06/19 06:34:25;;;;;;;12.30;2.93;;;14.00;99.90;;;;;;4923504;29;20226;-85
2022/06/19 06:36:52;;;;;;;12.93;2.57;;;14.10;99.90;;;;;;4921095;29;20217;-84
2022/06/19 06:39:20;;;;;;;11.80;2.73;;;14.20;99.90;;;;;;4917052;29;20517;-83
2022/06/19 06:41:47;;;;;;;13.20;3.07;;;14.20;99.90;;;;;;4916063;29;20526;-83
2022/06/19 06:44:48;;;;;;;9.73;2.55;;;14.40;99.90;;;;;;4903168;29;20486;-79
2022/06/19 06:47:16;;;;;;;15.32;2.70;;;14.40;99.90;;;;;;4915649;29;20228;-85
2022/06/19 06:49:43;;;;;;;12.67;2.43;;;14.50;99.90;;;;;;4914564;29;20202;-83
2022/06/19 06:52:11;;;;;;;13.32;2.60;;;14.60;99.90;;;;;;4914886;29;20498;-80
2022/06/19 06:54:38;;;;;;;9.45;2.70;;;14.50;99.90;;;;;;4923945;29;20869;-85
2022/06/19 06:57:06;;;;;;;10.77;2.37;;;14.50;99.90;;;;;;4933327;29;20289;-82
2022/06/19 06:59:34;;;;;;;8.77;2.60;;;14.50;99.90;;;;;;4914943;29;20278;-82
2022/06/19 07:02:01;;;;;;;12.77;2.80;;;14.60;99.90;;;;;;4913246;29;20213;-80
2022/06/19 07:22:28;;;;;;;8.50;2.10;;;14.50;99.90;;;;;;4665656;30;20212;-78
2022/06/19 07:24:55;;;;;;;9.20;2.47;;;14.50;99.90;;;;;;4755076;30;20216;-78
2022/06/19 07:27:22;;;;;;;9.25;1.95;;;14.50;99.90;;;;;;4796835;29;20246;-79
2022/06/19 07:29:49;;;;;;;9.77;2.17;;;14.50;99.90;;;;;;4864365;29;20251;-76
2022/06/19 07:32:16;;;;;;;8.80;1.98;;;14.50;99.90;;;;;;4871001;29;20251;-79
2022/06/19 07:34:43;;;;;;;9.40;1.90;;;14.50;99.90;;;;;;4872270;29;20210;-78
2022/06/19 07:37:12;;;;;;;7.95;2.08;;;14.60;99.90;;;;;;4871681;29;20259;-78
2022/06/19 07:39:40;;;;;;;8.53;2.13;;;14.70;99.90;;;;;;4871264;29;20212;-76
2022/06/19 07:42:08;;;;;;;7.47;2.20;;;14.80;99.90;;;;;;4872523;29;20328;-84
2022/06/19 07:44:35;;;;;;;7.35;2.08;;;14.80;99.90;;;;;;4876847;29;20200;-85
2022/06/19 07:52:33;;;;;;;7.78;1.70;;;14.90;99.90;;;;;;4875135;29;20207;-83
2022/06/19 07:55:01;;;;;;;8.50;1.87;;;14.90;99.90;;;;;;4875731;29;20208;-82
2022/06/19 07:57:28;;;;;;;7.32;1.70;;;14.90;99.90;;;;;;4875805;29;20287;-86
2022/06/19 07:59:55;;;;;;;7.53;2.10;;;15.00;99.90;;;;;;4873934;29;20212;-82
2022/06/19 08:02:24;;;;;;;8.35;2.58;;;15.00;99.90;;;;;;4874488;29;20204;-86
2022/06/19 08:04:51;;;;;;;7.80;2.20;;;15.00;99.90;;;;;;4873759;29;20324;-79
2022/06/19 08:07:19;;;;;;;8.55;1.90;;;15.10;99.90;;;;;;4874002;29;20560;-82
2022/06/19 08:09:47;;;;;;;8.43;1.83;;;15.20;99.90;;;;;;4874051;29;20288;-83
2022/06/19 08:12:15;;;;;;;7.82;2.00;;;15.30;99.90;;;;;;4873147;29;20212;-86
2022/06/19 08:14:42;;;;;;;7.70;1.80;;;15.30;99.90;;;;;;4873518;29;20239;-84
2022/06/19 08:17:09;;;;;;;8.18;1.65;;;15.40;99.90;;;;;;4873800;29;20200;-85
2022/06/19 08:19:36;;;;;;;5.80;1.50;;;15.40;99.90;;;;;;4884887;29;20219;-87
2022/06/19 08:22:03;;;;;;;8.30;1.75;;;15.50;99.90;;;;;;4873331;29;20214;-77
2022/06/19 08:24:30;;;;;;;7.30;2.28;;;15.60;99.90;;;;;;4874131;29;20200;-91
2022/06/19 08:26:58;;;;;;;7.35;1.67;;;15.60;99.90;;;;;;4871669;29;20243;-80
2022/06/19 08:29:26;;;;;;;6.57;2.03;;;15.70;99.90;;;;;;4871465;29;20248;-92
2022/06/19 08:31:53;;;;;;;6.72;1.88;;;15.80;99.90;;;;;;4871625;29;20212;-81
2022/06/19 08:34:20;;;;;;;7.43;1.98;;;15.80;99.90;;;;;;4871747;29;20334;-77
2022/06/19 08:36:47;;;;;;;5.45;1.50;;;15.90;99.90;;;;;;4903761;29;20220;-85
2022/06/19 08:39:18;;;;;;;5.40;1.75;;;16.00;99.90;;;;;;4930807;29;20240;-83
2022/06/19 08:42:01;;;;;;;4.72;1.50;;;16.10;99.90;;;;;;4928789;29;21063;-82
2022/06/19 08:44:46;;;;;;;3.90;1.20;;;16.00;99.90;;;;;;4912991;29;20210;-79
2022/06/19 08:47:35;;;;;;;4.30;1.50;;;16.00;99.90;;;;;;4912713;29;20297;-79
2022/06/19 08:50:13;;;;;;;4.55;1.33;;;15.90;99.90;;;;;;4911477;29;20202;-89
2022/06/19 08:53:06;;;;;;;3.60;1.40;;;15.90;99.90;;;;;;4912329;29;20217;-86
2022/06/19 08:55:44;;;;;;;4.70;1.35;;;16.00;99.90;;;;;;4912925;29;20207;-89
2022/06/19 08:58:21;;;;;;;4.95;1.30;;;15.90;99.90;;;;;;4920582;29;20241;-85
2022/06/19 09:00:55;;;;;;;5.18;1.60;;;16.00;99.90;;;;;;4938178;29;20301;-85
2022/06/19 09:05:36;;;;;;;2.50;0.73;;;16.00;99.90;;;;;;4925092;29;20223;-86
2022/06/19 09:06:32;;;;;;;3.90;1.02;;;16.20;99.90;;;;;;4914585;29;20266;-80
2022/06/19 09:09:24;;;;;;;5.32;1.45;;;16.40;99.90;;;;;;4939875;29;20241;-86
2022/06/19 09:12:11;;;;;;;1.23;0.93;;;16.50;99.90;;;;;;4933776;29;20190;-79
2022/06/19 09:14:46;;;;;;;6.68;1.65;;;16.60;99.90;;;;;;4930485;29;20213;-86
2022/06/19 09:17:22;;;;;;;5.30;1.23;;;16.70;99.90;;;;;;4930827;29;20209;-81
2022/06/19 09:19:52;;;;;;;7.28;1.50;;;16.80;99.90;;;;;;4930110;29;20583;-79
2022/06/19 09:22:38;;;;;;;5.40;1.45;;;16.90;99.90;;;;;;4924413;29;20306;-79
2022/06/19 09:25:18;;;;;;;2.80;1.20;;;17.00;99.90;;;;;;4911565;29;20198;-85
2022/06/19 09:27:52;;;;;;;3.80;1.48;;;16.90;99.90;;;;;;4910437;29;20230;-81
2022/06/19 09:30:26;;;;;;;4.95;1.30;;;16.90;99.90;;;;;;4911421;29;20205;-84
2022/06/19 09:32:59;;;;;;;4.50;1.35;;;17.00;99.90;;;;;;4912794;29;20284;-80
2022/06/19 09:35:33;;;;;;;5.60;1.70;;;17.10;99.90;;;;;;4915309;29;20218;-85
2022/06/19 09:38:08;;;;;;;6.35;1.58;;;17.10;99.90;;;;;;4915264;29;20663;-79
2022/06/19 09:40:38;;;;;;;4.60;1.35;;;17.10;99.90;;;;;;4917306;29;20297;-88
2022/06/19 09:43:11;;;;;;;2.72;0.90;;;17.20;99.90;;;;;;4914715;29;20226;-82
2022/06/19 09:45:48;;;;;;;3.90;1.50;;;17.30;99.90;;;;;;4915748;29;20576;-81
2022/06/19 09:48:22;;;;;;;5.38;1.20;;;17.60;99.90;;;;;;4915452;29;20233;-81
2022/06/19 09:50:52;;;;;;;3.70;1.20;;;17.70;99.90;;;;;;4915623;29;20198;-80
2022/06/19 09:53:26;;;;;;;5.97;1.85;;;17.70;99.90;;;;;;4914747;29;20293;-83
2022/06/19 09:55:59;;;;;;;4.88;1.40;;;18.10;99.90;;;;;;4916993;29;20209;-82
2022/06/19 09:58:34;;;;;;;3.00;1.10;;;18.30;99.90;;;;;;4917542;29;20289;-80
2022/06/19 10:01:04;;;;;;;3.75;1.40;;;18.70;99.90;;;;;;4932090;29;20205;-80
2022/06/19 10:03:40;;;;;;;2.83;0.95;;;19.00;99.90;;;;;;4933446;29;20217;-80
2022/06/19 10:06:12;;;;;;;4.05;1.20;;;19.30;99.90;;;;;;4934354;29;20209;-79
2022/06/19 10:08:44;;;;;;;3.60;1.55;;;19.30;99.90;;;;;;4930313;29;20697;-87
2022/06/19 10:11:15;;;;;;;5.60;1.30;;;19.30;99.90;;;;;;4950442;28;20209;-90
2022/06/19 10:13:47;;;;;;;3.22;1.55;;;19.30;99.90;;;;;;4944111;29;20300;-80
2022/06/19 10:16:20;;;;;;;4.32;1.40;;;19.40;99.90;;;;;;4931360;29;20324;-79
2022/06/19 10:18:53;;;;;;;5.88;1.88;;;19.50;99.90;;;;;;4925977;29;20214;-80
2022/06/19 10:24:20;;;;;;;4.80;1.90;;;19.30;99.90;;;;;;4929287;29;20663;-81
2022/06/19 10:26:53;;;;;;;5.07;1.58;;;19.60;99.90;;;;;;4927590;29;20224;-79
2022/06/19 10:29:38;;;;;;;5.75;1.63;;;19.60;99.90;;;;;;4929962;29;20326;-83
2022/06/19 10:32:22;;;;;;;7.45;1.80;;;19.70;99.90;;;;;;4926809;29;20306;-84
2022/06/19 10:35:09;;;;;;;6.60;1.98;;;19.60;99.90;;;;;;4926690;29;20221;-79
2022/06/19 10:37:45;;;;;;;7.10;2.17;;;19.70;99.90;;;;;;4928505;29;20492;-79
2022/06/19 10:40:31;;;;;;;8.60;1.80;;;19.70;99.90;;;;;;4929281;29;20598;-82
2022/06/19 10:43:09;;;;;;;6.15;1.75;;;19.50;99.90;;;;;;4928230;29;20213;-82
2022/06/19 10:45:41;;;;;;;7.85;2.38;;;19.50;99.90;;;;;;4926142;29;20264;-87
2022/06/19 10:48:24;;;;;;;8.57;2.17;;;19.50;99.90;;;;;;4926702;29;20237;-79
2022/06/19 10:51:16;;;;;;;8.50;2.03;;;19.30;99.90;;;;;;4927195;29;20206;-89
2022/06/19 10:54:08;;;;;;;6.45;2.25;;;18.90;99.90;;;;;;4926903;29;20336;-84
2022/06/19 10:56:46;;;;;;;7.25;2.08;;;18.90;99.90;;;;;;4929997;29;20208;-83
2022/06/19 10:59:14;;;;;;;9.27;2.40;;;18.90;99.90;;;;;;4911207;29;20197;-81
2022/06/19 11:04:37;;;;;;;10.98;2.25;;;19.30;99.90;;;;;;4912412;29;20190;-80
2022/06/19 11:07:09;;;;;;;6.35;2.22;;;19.60;99.90;;;;;;4912513;29;20222;-89
2022/06/19 11:09:39;;;;;;;7.80;2.38;;;19.80;99.90;;;;;;4911773;29;20667;-85
2022/06/19 11:12:11;;;;;;;8.38;2.25;;;20.20;99.90;;;;;;4910813;29;20560;-84
2022/06/19 11:14:46;;;;;;;7.30;2.10;;;20.60;99.90;;;;;;4913400;29;20195;-80
2022/06/19 11:17:15;;;;;;;4.85;1.67;;;20.90;99.90;;;;;;4912197;29;20209;-86
2022/06/19 11:19:45;;;;;;;8.25;2.15;;;21.10;99.90;;;;;;4912941;29;20211;-84
2022/06/19 11:22:34;;;;;;;9.57;2.25;;;21.30;99.90;;;;;;4916942;29;20207;-90
2022/06/19 11:25:25;;;;;;;6.60;2.33;;;21.10;99.90;;;;;;4917446;29;20229;-90
2022/06/19 11:27:55;;;;;;;9.13;2.35;;;21.00;99.90;;;;;;4918024;29;20230;-91
2022/06/19 11:30:28;;;;;;;9.02;2.35;;;21.00;99.90;;;;;;4916015;29;20243;-89
2022/06/19 11:32:55;;;;;;;6.57;2.10;;;21.00;99.90;;;;;;4917000;29;20215;-89
2022/06/19 11:35:23;;;;;;;9.93;2.38;;;20.90;99.90;;;;;;4915014;29;20205;-85
2022/06/19 11:37:56;;;;;;;6.28;1.92;;;21.00;99.90;;;;;;4920457;29;20204;-88
2022/06/19 11:40:31;;;;;;;6.07;1.75;;;21.10;99.90;;;;;;4932900;29;20220;-80
2022/06/19 11:42:59;;;;;;;7.45;2.30;;;21.00;99.90;;;;;;4932293;29;20209;-88
2022/06/19 11:45:29;;;;;;;9.63;2.08;;;21.10;99.90;;;;;;4933198;29;20205;-90
2022/06/19 11:48:07;;;;;;;10.95;2.17;;;21.40;99.90;;;;;;4933869;29;20521;-86
2022/06/19 11:50:46;;;;;;;8.25;2.90;;;21.10;99.90;;;;;;4930763;29;20220;-81
2022/06/19 11:53:18;;;;;;;7.60;2.50;;;21.00;99.90;;;;;;4931892;29;20536;-88
2022/06/19 11:55:47;;;;;;;8.98;2.40;;;21.40;99.90;;;;;;4918629;29;20214;-88
2022/06/19 11:58:30;;;;;;;7.75;2.30;;;21.50;99.90;;;;;;4914413;29;20202;-82
2022/06/19 12:01:03;;;;;;;7.15;2.63;;;21.60;99.90;;;;;;4933107;29;20890;-80
2022/06/19 12:03:32;;;;;;;13.43;4.72;;;21.30;99.90;;;;;;4931756;29;20202;-78
2022/06/19 12:06:01;;;;;;;7.47;2.25;;;21.00;99.90;;;;;;4930153;29;20218;-80
2022/06/19 12:08:33;;;;;;;8.27;2.33;;;20.90;99.90;;;;;;4931853;29;20652;-84
2022/06/19 12:11:04;;;;;;;7.18;2.50;;;20.70;99.90;;;;;;4918982;29;20221;-82
2022/06/19 12:13:35;;;;;;;7.15;2.25;;;20.80;99.90;;;;;;4912161;29;20199;-81
2022/06/19 12:16:09;;;;;;;7.07;2.72;;;20.80;99.90;;;;;;4911054;29;20213;-82
2022/06/19 12:18:36;;;;;;;7.57;2.40;;;20.90;99.90;;;;;;4912159;29;20198;-82
2022/06/19 12:21:16;;;;;;;10.13;2.63;;;20.90;99.90;;;;;;4919933;29;20205;-87
2022/06/19 12:23:50;;;;;;;12.15;2.67;;;20.80;99.90;;;;;;4934069;29;20475;-86
2022/06/19 12:26:27;;;;;;;7.30;2.50;;;20.70;99.90;;;;;;4932613;29;20210;-82
2022/06/19 12:28:58;;;;;;;7.32;2.40;;;20.70;99.90;;;;;;4927399;29;20551;-85
2022/06/19 12:31:28;;;;;;;12.35;3.33;;;20.50;99.90;;;;;;4924443;29;20206;-87
2022/06/19 12:34:01;;;;;;;9.55;3.13;;;20.30;99.90;;;;;;4931167;29;20209;-84
2022/06/19 12:36:30;;;;;;;8.20;2.45;;;20.30;99.90;;;;;;4932624;29;20214;-88
2022/06/19 12:38:59;;;;;;;4.40;2.10;;;20.50;99.90;;;;;;4927582;29;20203;-84
2022/06/19 12:41:35;;;;;;;7.43;2.10;;;20.80;99.90;;;;;;4930351;29;20301;-84
2022/06/19 12:44:17;;;;;;;10.45;2.40;;;20.90;99.90;;;;;;4931234;29;20252;-83
2022/06/19 12:46:51;;;;;;;8.65;2.03;;;21.20;99.90;;;;;;4929734;29;20515;-82
2022/06/19 12:49:36;;;;;;;7.00;2.03;;;21.40;99.90;;;;;;4924994;29;20516;-86
2022/06/19 12:52:16;;;;;;;5.75;2.00;;;21.60;99.90;;;;;;4927072;29;20214;-81
2022/06/19 12:55:16;;;;;;;7.28;2.47;;;21.70;99.90;;;;;;4926818;29;20225;-82
2022/06/19 12:58:21;;;;;;;7.60;2.63;;;21.60;99.90;;;;;;4930208;29;20221;-82
2022/06/19 13:00:51;;;;;;;11.35;2.70;;;21.30;99.90;;;;;;4928583;29;20217;-83
2022/06/19 13:03:38;;;;;;;5.35;1.92;;;21.10;99.90;;;;;;4927125;29;20225;-85
2022/06/19 13:06:18;;;;;;;6.47;2.25;;;21.00;99.90;;;;;;4929751;29;20218;-86
2022/06/19 13:08:54;;;;;;;8.57;4.30;;;21.10;99.90;;;;;;4928935;29;20924;-90
2022/06/19 13:11:33;;;;;;;8.77;2.63;;;21.40;99.90;;;;;;4936847;23;20237;-81
2022/06/19 13:14:21;;;;;;;8.98;3.08;;;21.60;99.90;;;;;;4928039;29;20701;-84
2022/06/19 13:16:58;;;;;;;9.95;2.50;;;21.80;99.90;;;;;;4924671;29;20217;-83
2022/06/19 13:19:37;;;;;;;11.88;2.70;;;21.60;99.90;;;;;;4929309;29;20600;-82
2022/06/19 13:22:20;;;;;;;10.18;3.22;;;21.50;99.90;;;;;;4905369;29;20211;-80
2022/06/19 13:24:53;;;;;;;8.57;2.47;;;21.30;99.90;;;;;;4893630;29;20196;-81
2022/06/19 13:27:36;;;;;;;8.70;2.92;;;21.30;99.90;;;;;;4895900;29;20210;-86
2022/06/19 13:30:21;;;;;;;11.05;1.75;;;21.20;99.90;;;;;;4877847;29;20364;-88
2022/06/19 13:33:02;;;;;;;7.07;2.30;;;21.20;99.90;;;;;;4895677;29;20235;-85
2022/06/19 13:35:37;;;;;;;15.48;6.95;;;21.20;99.90;;;;;;4893742;29;20242;-89